createdAt,value
2023-05-14T00:02:19.381Z,15.47
2023-05-14T00:04:51.638Z,15.47
2023-05-14T00:07:23.812Z,15.45
2023-05-14T00:09:56.002Z,15.45
2023-05-14T00:12:28.921Z,15.48
2023-05-14T00:15:01.410Z,15.49
2023-05-14T00:17:33.582Z,15.50
2023-05-14T00:20:07.273Z,15.50
2023-05-14T00:22:39.630Z,15.42
2023-05-14T00:25:12.500Z,15.48
2023-05-14T00:27:44.781Z,15.44
2023-05-14T00:30:17.445Z,15.44
2023-05-14T00:32:49.630Z,15.42
2023-05-14T00:35:22.365Z,15.38
2023-05-14T00:37:55.105Z,15.40
2023-05-14T00:40:28.853Z,15.41
2023-05-14T00:43:01.355Z,15.40
2023-05-14T00:45:33.595Z,15.40
2023-05-14T00:48:07.160Z,15.40
2023-05-14T00:50:39.680Z,15.42
2023-05-14T00:53:12.556Z,15.43
2023-05-14T00:55:46.561Z,15.40
2023-05-14T00:58:19.102Z,15.37
2023-05-14T01:00:52.093Z,15.34
2023-05-14T01:03:24.526Z,15.21
2023-05-14T01:06:06.660Z,15.24
2023-05-14T01:08:46.666Z,15.23
2023-05-14T01:11:26.007Z,15.14
2023-05-14T01:14:04.744Z,15.18
2023-05-14T01:16:41.430Z,15.17
2023-05-14T01:19:28.713Z,15.17
2023-05-14T01:22:00.911Z,15.07
2023-05-14T01:24:33.038Z,15.13
2023-05-14T01:27:11.993Z,15.08
2023-05-14T01:29:49.579Z,15.05
2023-05-14T01:32:24.787Z,15.02
2023-05-14T01:34:59.490Z,15.00
2023-05-14T01:37:33.863Z,14.99
2023-05-14T01:40:07.860Z,14.96
2023-05-14T01:42:40.824Z,14.94
2023-05-14T01:45:14.124Z,14.93
2023-05-14T01:47:46.908Z,14.92
2023-05-14T01:50:19.308Z,14.89
2023-05-14T01:52:53.587Z,14.87
2023-05-14T01:55:24.937Z,14.85
2023-05-14T01:57:57.315Z,14.84
2023-05-14T02:00:29.844Z,14.82
2023-05-14T02:03:03.348Z,14.80
2023-05-14T02:05:35.625Z,14.71
2023-05-14T02:08:08.241Z,14.76
2023-05-14T02:10:40.427Z,14.72
2023-05-14T02:13:12.598Z,14.67
2023-05-14T02:15:44.816Z,14.63
2023-05-14T02:18:17.171Z,14.50
2023-05-14T02:20:50.147Z,14.55
2023-05-14T02:23:34.158Z,14.52
2023-05-14T02:26:13.500Z,14.48
2023-05-14T02:28:46.130Z,14.45
2023-05-14T02:31:19.561Z,14.44
2023-05-14T02:33:51.976Z,14.40
2023-05-14T02:36:24.158Z,14.35
2023-05-14T02:38:56.643Z,14.31
2023-05-14T02:41:28.875Z,14.29
2023-05-14T02:44:00.899Z,14.26
2023-05-14T02:46:33.761Z,14.23
2023-05-14T02:49:07.460Z,14.19
2023-05-14T02:51:39.981Z,14.19
2023-05-14T02:54:12.332Z,14.19
2023-05-14T02:56:44.652Z,14.15
2023-05-14T02:59:17.053Z,14.14
2023-05-14T03:01:49.963Z,14.13
2023-05-14T03:04:22.716Z,14.14
2023-05-14T03:06:54.890Z,14.15
2023-05-14T03:09:27.392Z,14.05
2023-05-14T03:11:59.807Z,14.07
2023-05-14T03:14:32.151Z,14.17
2023-05-14T03:17:05.067Z,14.17
2023-05-14T03:19:37.682Z,14.18
2023-05-14T03:22:10.087Z,14.18
2023-05-14T03:24:42.761Z,14.17
2023-05-14T03:27:16.084Z,14.10
2023-05-14T03:29:48.326Z,14.15
2023-05-14T03:32:21.423Z,14.16
2023-05-14T03:34:53.761Z,14.16
2023-05-14T03:37:27.232Z,14.17
2023-05-14T03:39:59.591Z,14.17
2023-05-14T03:42:32.068Z,14.18
2023-05-14T03:45:04.975Z,14.18
2023-05-14T03:47:38.079Z,14.21
2023-05-14T03:50:12.349Z,14.22
2023-05-14T03:52:44.663Z,14.27
2023-05-14T03:55:16.974Z,14.31
2023-05-14T03:57:49.150Z,14.34
2023-05-14T04:00:22.693Z,14.37
2023-05-14T04:02:57.140Z,14.43
2023-05-14T04:05:29.578Z,14.50
2023-05-14T04:08:01.775Z,14.57
2023-05-14T04:10:34.060Z,14.62
2023-05-14T04:13:06.942Z,14.71
2023-05-14T04:15:41.302Z,14.78
2023-05-14T04:18:14.060Z,14.83
2023-05-14T04:20:46.563Z,14.88
2023-05-14T04:23:18.956Z,14.94
2023-05-14T04:25:51.105Z,14.99
2023-05-14T04:28:23.220Z,15.03
2023-05-14T04:30:55.645Z,15.08
2023-05-14T04:33:27.963Z,15.13
2023-05-14T04:36:00.262Z,15.17
2023-05-14T04:38:32.900Z,15.22
2023-05-14T04:41:06.135Z,15.29
2023-05-14T04:43:38.512Z,15.34
2023-05-14T04:46:10.888Z,15.40
2023-05-14T04:48:43.244Z,15.44
2023-05-14T04:51:16.205Z,15.50
2023-05-14T04:53:48.678Z,15.57
2023-05-14T04:56:21.690Z,15.61
2023-05-14T04:58:54.044Z,15.67
2023-05-14T05:01:26.144Z,15.72
2023-05-14T05:03:58.599Z,15.77
2023-05-14T05:06:31.704Z,15.84
2023-05-14T05:09:04.574Z,15.89
2023-05-14T05:11:37.974Z,15.95
2023-05-14T05:14:10.314Z,15.98
2023-05-14T05:16:42.519Z,16.03
2023-05-14T05:19:15.123Z,16.10
2023-05-14T05:21:47.942Z,16.17
2023-05-14T05:24:20.406Z,16.20
2023-05-14T05:26:54.060Z,16.27
2023-05-14T05:29:27.939Z,16.31
2023-05-14T05:32:00.285Z,16.32
2023-05-14T05:34:32.421Z,16.36
2023-05-14T05:37:06.135Z,16.41
2023-05-14T05:39:38.335Z,16.46
2023-05-14T05:42:11.038Z,16.52
2023-05-14T05:44:43.310Z,16.56
2023-05-14T05:47:15.714Z,16.62
2023-05-14T05:49:47.971Z,16.68
2023-05-14T05:52:20.314Z,16.72
2023-05-14T05:54:52.584Z,16.77
2023-05-14T05:57:27.237Z,16.83
2023-05-14T05:59:59.602Z,16.90
2023-05-14T06:02:32.000Z,16.93
2023-05-14T06:05:04.573Z,16.97
2023-05-14T06:07:37.174Z,17.04
2023-05-14T06:10:10.735Z,17.11
2023-05-14T06:12:42.976Z,17.18
2023-05-14T06:15:15.372Z,17.23
2023-05-14T06:17:47.704Z,17.31
2023-05-14T06:20:20.033Z,17.39
2023-05-14T06:22:52.403Z,17.45
2023-05-14T06:25:24.816Z,17.51
2023-05-14T06:27:57.501Z,17.58
2023-05-14T06:30:29.650Z,17.65
2023-05-14T06:33:02.152Z,17.74
2023-05-14T06:35:35.638Z,17.81
2023-05-14T06:38:07.855Z,17.89
2023-05-14T06:40:40.250Z,17.98
2023-05-14T06:43:12.320Z,18.05
2023-05-14T06:45:44.695Z,18.05
2023-05-14T06:48:18.825Z,18.16
2023-05-14T06:50:51.970Z,18.20
2023-05-14T06:53:24.451Z,18.26
2023-05-14T06:55:57.024Z,18.26
2023-05-14T06:58:29.142Z,18.32
2023-05-14T07:01:01.706Z,18.35
2023-05-14T07:03:34.027Z,18.39
2023-05-14T07:06:07.066Z,18.44
2023-05-14T07:08:39.120Z,18.52
2023-05-14T07:11:11.313Z,18.57
2023-05-14T07:13:44.039Z,18.67
2023-05-14T07:16:16.255Z,18.76
2023-05-14T07:18:49.214Z,18.82
2023-05-14T07:21:21.680Z,18.83
2023-05-14T07:23:54.150Z,18.96
2023-05-14T07:26:26.714Z,19.02
2023-05-14T07:28:58.846Z,19.10
2023-05-14T07:31:31.305Z,19.16
2023-05-14T07:34:03.662Z,19.23
2023-05-14T07:36:36.155Z,19.26
2023-05-14T07:39:08.843Z,19.29
2023-05-14T07:41:40.906Z,19.33
2023-05-14T07:44:13.239Z,19.39
2023-05-14T07:46:45.506Z,19.43
2023-05-14T07:49:17.799Z,19.50
2023-05-14T07:51:49.929Z,19.57
2023-05-14T07:54:22.377Z,19.66
2023-05-14T07:56:54.747Z,19.73
2023-05-14T07:59:27.344Z,19.83
2023-05-14T08:01:59.843Z,19.94
2023-05-14T08:04:32.066Z,20.02
2023-05-14T08:07:04.470Z,20.12
2023-05-14T08:09:36.733Z,20.22
2023-05-14T08:12:10.070Z,20.29
2023-05-14T08:14:42.413Z,20.30
2023-05-14T08:17:14.831Z,20.44
2023-05-14T08:19:47.819Z,20.53
2023-05-14T08:22:20.183Z,20.62
2023-05-14T08:24:52.784Z,20.70
2023-05-14T08:27:24.807Z,20.79
2023-05-14T08:29:57.123Z,20.88
2023-05-14T08:32:29.444Z,20.97
2023-05-14T08:35:01.733Z,21.04
2023-05-14T08:37:33.963Z,21.16
2023-05-14T08:40:08.790Z,21.23
2023-05-14T08:42:43.138Z,21.27
2023-05-14T08:45:20.246Z,21.41
2023-05-14T08:47:53.091Z,21.42
2023-05-14T08:50:26.482Z,21.56
2023-05-14T08:52:58.657Z,21.69
2023-05-14T08:55:33.022Z,21.79
2023-05-14T08:58:05.374Z,21.78
2023-05-14T09:00:37.977Z,21.83
2023-05-14T09:03:11.510Z,21.86
2023-05-14T09:05:44.513Z,21.96
2023-05-14T09:08:16.785Z,22.04
2023-05-14T09:10:49.107Z,22.01
2023-05-14T09:13:21.399Z,22.04
2023-05-14T09:15:54.232Z,22.16
2023-05-14T09:18:26.302Z,22.29
2023-05-14T09:20:59.396Z,22.35
2023-05-14T09:23:34.993Z,22.44
2023-05-14T09:26:08.757Z,22.48
2023-05-14T09:28:44.747Z,22.62
2023-05-14T09:31:17.038Z,22.68
2023-05-14T09:33:53.029Z,22.74
2023-05-14T09:36:27.182Z,22.78
2023-05-14T09:39:01.671Z,22.79
2023-05-14T09:41:33.949Z,22.84
2023-05-14T09:44:06.830Z,22.86
2023-05-14T09:46:39.532Z,22.86
2023-05-14T09:49:11.619Z,22.91
2023-05-14T09:51:44.129Z,22.92
2023-05-14T09:54:16.462Z,22.94
2023-05-14T09:56:49.152Z,23.02
2023-05-14T09:59:21.360Z,23.14
2023-05-14T10:01:54.860Z,23.19
2023-05-14T10:04:27.236Z,23.13
2023-05-14T10:07:00.660Z,23.28
2023-05-14T10:09:32.898Z,23.37
2023-05-14T10:12:05.655Z,23.39
2023-05-14T10:14:42.434Z,23.23
2023-05-14T10:17:18.602Z,23.34
2023-05-14T10:19:54.791Z,23.22
2023-05-14T10:22:29.114Z,23.23
2023-05-14T10:25:01.860Z,23.23
2023-05-14T10:27:34.542Z,23.40
2023-05-14T10:30:12.947Z,23.52
2023-05-14T10:32:45.187Z,23.56
2023-05-14T10:35:25.436Z,23.50
2023-05-14T10:37:57.890Z,23.69
2023-05-14T10:40:30.754Z,23.81
2023-05-14T10:43:03.830Z,23.63
2023-05-14T10:45:37.221Z,23.60
2023-05-14T10:48:09.636Z,23.55
2023-05-14T10:50:43.242Z,23.49
2023-05-14T10:53:17.219Z,23.40
2023-05-14T10:55:49.907Z,23.38
2023-05-14T10:58:22.622Z,23.35
2023-05-14T11:00:57.975Z,23.35
2023-05-14T11:03:33.093Z,23.38
2023-05-14T11:06:07.355Z,23.38
2023-05-14T11:08:40.411Z,23.37
2023-05-14T11:11:12.761Z,23.25
2023-05-14T11:13:45.896Z,23.21
2023-05-14T11:16:23.233Z,23.08
2023-05-14T11:19:06.045Z,23.10
2023-05-14T11:21:38.164Z,23.09
2023-05-14T11:24:10.935Z,23.42
2023-05-14T11:26:43.349Z,23.66
2023-05-14T11:29:16.134Z,23.85
2023-05-14T11:31:48.784Z,23.71
2023-05-14T11:34:21.797Z,23.66
2023-05-14T11:36:53.914Z,23.58
2023-05-14T11:39:26.123Z,23.52
2023-05-14T11:41:59.142Z,23.46
2023-05-14T11:44:31.848Z,23.32
2023-05-14T11:47:05.154Z,23.34
2023-05-14T11:49:38.165Z,23.35
2023-05-14T11:52:14.286Z,23.40
2023-05-14T11:54:47.130Z,23.60
2023-05-14T11:57:22.106Z,23.76
2023-05-14T11:59:58.788Z,23.80
2023-05-14T12:02:31.694Z,23.71
2023-05-14T12:05:04.230Z,23.57
2023-05-14T12:07:37.156Z,23.48
2023-05-14T12:10:13.378Z,23.38
2023-05-14T12:12:48.967Z,23.41
2023-05-14T12:15:22.360Z,23.38
2023-05-14T12:17:54.807Z,23.31
2023-05-14T12:20:28.722Z,23.20
2023-05-14T12:23:01.208Z,23.19
2023-05-14T12:25:34.307Z,23.14
2023-05-14T12:28:16.880Z,23.16
2023-05-14T12:30:51.158Z,23.19
2023-05-14T12:33:24.014Z,23.21
2023-05-14T12:36:02.405Z,23.25
2023-05-14T12:38:41.343Z,23.33
2023-05-14T12:41:13.638Z,23.34
2023-05-14T12:43:48.692Z,23.25
2023-05-14T12:46:21.302Z,23.27
2023-05-14T12:48:53.653Z,23.48
2023-05-14T12:51:26.318Z,23.55
2023-05-14T12:53:58.574Z,23.59
2023-05-14T12:56:32.181Z,23.54
2023-05-14T12:59:04.802Z,23.48
2023-05-14T13:01:38.351Z,23.39
2023-05-14T13:04:12.457Z,23.34
2023-05-14T13:06:45.022Z,23.27
2023-05-14T13:09:17.483Z,23.23
2023-05-14T13:11:49.749Z,23.17
2023-05-14T13:14:21.801Z,23.14
2023-05-14T13:16:54.030Z,23.06
2023-05-14T13:19:26.676Z,23.00
2023-05-14T13:21:58.837Z,22.89
2023-05-14T13:24:31.064Z,22.82
2023-05-14T13:27:03.196Z,22.74
2023-05-14T13:29:35.250Z,22.67
2023-05-14T13:32:09.010Z,22.70
2023-05-14T13:34:41.349Z,22.76
2023-05-14T13:37:13.763Z,22.86
2023-05-14T13:39:45.864Z,22.91
2023-05-14T13:42:17.920Z,23.18
2023-05-14T13:44:50.123Z,23.42
2023-05-14T13:47:22.551Z,23.68
2023-05-14T13:49:54.968Z,23.97
2023-05-14T13:52:27.499Z,24.17
2023-05-14T13:54:59.896Z,24.36
2023-05-14T13:57:32.285Z,24.40
2023-05-14T14:00:05.388Z,24.61
2023-05-14T14:02:37.920Z,24.85
2023-05-14T14:05:11.650Z,25.09
2023-05-14T14:07:43.919Z,24.87
2023-05-14T14:10:15.993Z,24.69
2023-05-14T14:12:48.134Z,24.48
2023-05-14T14:15:20.518Z,24.37
2023-05-14T14:17:52.752Z,24.26
2023-05-14T14:20:25.075Z,24.11
2023-05-14T14:22:57.465Z,23.87
2023-05-14T14:25:29.708Z,23.83
2023-05-14T14:28:02.283Z,23.59
2023-05-14T14:30:35.361Z,23.55
2023-05-14T14:33:08.110Z,23.46
2023-05-14T14:35:40.282Z,23.55
2023-05-14T14:38:12.594Z,23.77
2023-05-14T14:40:46.127Z,24.03
2023-05-14T14:43:18.783Z,24.09
2023-05-14T14:45:51.188Z,23.99
2023-05-14T14:48:30.976Z,23.97
2023-05-14T14:51:03.350Z,23.86
2023-05-14T14:53:36.191Z,23.65
2023-05-14T14:56:08.992Z,23.59
2023-05-14T14:58:41.342Z,23.58
2023-05-14T15:01:13.814Z,23.36
2023-05-14T15:03:48.249Z,23.23
2023-05-14T15:06:20.694Z,23.24
2023-05-14T15:08:52.990Z,23.19
2023-05-14T15:11:25.079Z,23.31
2023-05-14T15:13:57.604Z,23.30
2023-05-14T15:16:30.153Z,23.25
2023-05-14T15:19:02.640Z,23.28
2023-05-14T15:21:34.882Z,23.25
2023-05-14T15:24:08.043Z,23.25
2023-05-14T15:26:40.577Z,23.24
2023-05-14T15:29:12.768Z,23.20
2023-05-14T15:31:45.866Z,23.16
2023-05-14T15:34:18.616Z,23.12
2023-05-14T15:36:50.806Z,23.04
2023-05-14T15:39:22.951Z,22.99
2023-05-14T15:41:55.042Z,22.88
2023-05-14T15:44:27.222Z,22.93
2023-05-14T15:46:59.403Z,22.92
2023-05-14T15:49:31.774Z,22.90
2023-05-14T15:52:04.015Z,22.92
2023-05-14T15:54:36.401Z,22.89
2023-05-14T15:57:09.086Z,22.83
2023-05-14T15:59:41.060Z,22.83
2023-05-14T16:02:13.761Z,22.80
2023-05-14T16:04:46.401Z,22.76
2023-05-14T16:07:18.905Z,22.72
2023-05-14T16:09:51.077Z,22.67
2023-05-14T16:12:23.366Z,22.64
2023-05-14T16:14:57.143Z,22.60
2023-05-14T16:17:30.523Z,22.56
2023-05-14T16:20:04.845Z,22.51
2023-05-14T16:22:37.094Z,22.47
2023-05-14T16:25:11.753Z,22.41
2023-05-14T16:27:44.170Z,22.37
2023-05-14T16:30:16.689Z,22.34
2023-05-14T16:32:49.743Z,22.28
2023-05-14T16:35:22.281Z,22.25
2023-05-14T16:37:54.605Z,22.21
2023-05-14T16:40:26.852Z,22.17
2023-05-14T16:42:59.061Z,22.14
2023-05-14T16:45:32.713Z,22.09
2023-05-14T16:48:05.451Z,22.23
2023-05-14T16:50:37.884Z,22.33
2023-05-14T16:53:09.995Z,22.45
2023-05-14T16:55:42.234Z,22.54
2023-05-14T16:58:14.546Z,22.62
2023-05-14T17:00:46.730Z,22.41
2023-05-14T17:03:19.030Z,22.46
2023-05-14T17:05:51.730Z,22.41
2023-05-14T17:08:23.886Z,22.39
2023-05-14T17:10:56.377Z,22.38
2023-05-14T17:13:27.398Z,22.31
2023-05-14T17:16:17.110Z,22.26
2023-05-14T17:18:48.122Z,22.26
2023-05-14T17:21:20.512Z,22.24
2023-05-14T17:23:52.736Z,22.22
2023-05-14T17:26:26.411Z,22.21
2023-05-14T17:28:58.699Z,22.21
2023-05-14T17:31:30.930Z,22.22
2023-05-14T17:34:03.374Z,22.21
2023-05-14T17:36:36.037Z,22.19
2023-05-14T17:39:08.292Z,22.15
2023-05-14T17:41:42.113Z,22.12
2023-05-14T17:44:14.623Z,22.12
2023-05-14T17:46:49.202Z,22.15
2023-05-14T17:49:21.522Z,22.14
2023-05-14T17:51:53.729Z,22.23
2023-05-14T17:54:26.062Z,22.31
2023-05-14T17:56:58.480Z,22.46
2023-05-14T17:59:31.118Z,22.47
2023-05-14T18:02:05.702Z,22.42
2023-05-14T18:04:38.676Z,22.41
2023-05-14T18:07:11.567Z,22.49
2023-05-14T18:09:43.810Z,22.51
2023-05-14T18:12:16.276Z,22.57
2023-05-14T18:14:48.792Z,22.50
2023-05-14T18:17:21.478Z,22.29
2023-05-14T18:19:53.713Z,22.25
2023-05-14T18:22:26.208Z,22.21
2023-05-14T18:24:58.649Z,22.13
2023-05-14T18:27:31.673Z,22.02
2023-05-14T18:30:04.168Z,21.94
2023-05-14T18:32:36.818Z,21.86
2023-05-14T18:35:10.319Z,21.77
2023-05-14T18:37:43.257Z,21.70
2023-05-14T18:40:18.503Z,21.60
2023-05-14T18:42:51.364Z,21.50
2023-05-14T18:45:24.214Z,21.40
2023-05-14T18:47:58.076Z,21.31
2023-05-14T18:50:30.765Z,21.21
2023-05-14T18:53:03.219Z,21.11
2023-05-14T18:55:35.814Z,21.02
2023-05-14T18:58:08.480Z,20.93
2023-05-14T19:00:40.766Z,20.84
2023-05-14T19:03:13.031Z,20.76
2023-05-14T19:05:45.530Z,20.71
2023-05-14T19:08:18.952Z,20.65
2023-05-14T19:10:51.280Z,20.55
2023-05-14T19:13:23.831Z,20.48
2023-05-14T19:15:56.250Z,20.41
2023-05-14T19:18:29.290Z,20.35
2023-05-14T19:21:01.337Z,20.29
2023-05-14T19:23:33.816Z,20.23
2023-05-14T19:26:06.908Z,20.18
2023-05-14T19:28:39.332Z,20.13
2023-05-14T19:31:11.520Z,20.10
2023-05-14T19:33:43.967Z,20.05
2023-05-14T19:36:16.284Z,19.95
2023-05-14T19:38:49.284Z,19.99
2023-05-14T19:41:21.866Z,19.96
2023-05-14T19:43:54.136Z,19.91
2023-05-14T19:46:26.607Z,19.87
2023-05-14T19:48:59.068Z,19.83
2023-05-14T19:51:31.574Z,19.79
2023-05-14T19:54:03.891Z,19.75
2023-05-14T19:56:36.188Z,19.70
2023-05-14T19:59:08.601Z,19.65
2023-05-14T20:01:41.425Z,19.61
2023-05-14T20:04:14.166Z,19.59
2023-05-14T20:06:47.386Z,19.54
2023-05-14T20:09:20.235Z,19.51
2023-05-14T20:11:52.631Z,19.47
2023-05-14T20:14:24.840Z,19.43
2023-05-14T20:16:58.041Z,19.39
2023-05-14T20:19:31.135Z,19.37
2023-05-14T20:22:03.385Z,19.34
2023-05-14T20:24:35.419Z,19.32
2023-05-14T20:27:08.374Z,19.29
2023-05-14T20:29:40.556Z,19.29
2023-05-14T20:32:13.297Z,19.31
2023-05-14T20:34:45.621Z,19.30
2023-05-14T20:37:18.784Z,19.31
2023-05-14T20:39:51.461Z,19.34
2023-05-14T20:42:24.555Z,19.33
2023-05-14T20:44:57.254Z,19.32
2023-05-14T20:47:31.359Z,19.31
2023-05-14T20:50:04.742Z,19.29
2023-05-14T20:52:36.944Z,19.29
2023-05-14T20:55:11.183Z,19.29
2023-05-14T20:57:43.550Z,19.29
2023-05-14T21:00:19.443Z,19.27
2023-05-14T21:02:51.797Z,19.26
2023-05-14T21:05:24.231Z,19.24
2023-05-14T21:07:57.016Z,19.23
2023-05-14T21:10:29.357Z,19.22
2023-05-14T21:13:02.005Z,19.20
2023-05-14T21:15:34.376Z,19.18
2023-05-14T21:18:06.796Z,19.18
2023-05-14T21:20:39.028Z,19.15
2023-05-14T21:23:11.503Z,19.14
2023-05-14T21:25:43.724Z,19.14
2023-05-14T21:28:16.198Z,19.13
2023-05-14T21:30:48.534Z,19.12
2023-05-14T21:33:20.957Z,19.12
2023-05-14T21:35:53.537Z,19.11
2023-05-14T21:38:26.035Z,19.09
2023-05-14T21:40:59.825Z,19.06
2023-05-14T21:43:32.164Z,19.02
2023-05-14T21:46:04.432Z,19.02
2023-05-14T21:48:36.679Z,19.01
2023-05-14T21:51:09.076Z,18.97
2023-05-14T21:53:41.258Z,18.88
2023-05-14T21:56:13.419Z,18.94
2023-05-14T21:58:46.603Z,18.91
2023-05-14T22:01:18.916Z,18.84
2023-05-14T22:03:51.302Z,18.86
2023-05-14T22:06:23.900Z,18.87
2023-05-14T22:08:56.334Z,18.86
2023-05-14T22:11:28.718Z,18.84
2023-05-14T22:14:01.130Z,18.85
2023-05-14T22:16:33.557Z,18.82
2023-05-14T22:19:06.660Z,18.82
2023-05-14T22:21:39.497Z,18.82
2023-05-14T22:24:12.240Z,18.80
2023-05-14T22:26:44.821Z,18.81
2023-05-14T22:29:17.775Z,18.78
2023-05-14T22:31:50.018Z,18.78
2023-05-14T22:34:22.299Z,18.77
2023-05-14T22:36:54.584Z,18.76
2023-05-14T22:39:26.797Z,18.76
2023-05-14T22:41:59.696Z,18.77
2023-05-14T22:44:31.881Z,18.68
2023-05-14T22:47:05.087Z,18.74
2023-05-14T22:49:37.424Z,18.71
2023-05-14T22:52:10.231Z,18.72
2023-05-14T22:54:42.404Z,18.72
2023-05-14T22:57:15.257Z,18.73
2023-05-14T22:59:47.409Z,18.71
2023-05-14T23:02:19.548Z,18.71
2023-05-14T23:04:52.183Z,18.62
2023-05-14T23:07:24.777Z,18.66
2023-05-14T23:09:56.795Z,18.63
2023-05-14T23:12:29.486Z,18.64
2023-05-14T23:15:01.528Z,18.63
2023-05-14T23:17:33.876Z,18.64
2023-05-14T23:20:06.983Z,18.63
2023-05-14T23:22:39.221Z,18.63
2023-05-14T23:25:12.332Z,18.61
2023-05-14T23:27:44.662Z,18.59
2023-05-14T23:30:17.171Z,18.58
2023-05-14T23:32:49.611Z,18.54
2023-05-14T23:35:21.868Z,18.53
2023-05-14T23:37:55.567Z,18.54
2023-05-14T23:40:27.736Z,18.53
2023-05-14T23:43:00.558Z,18.50
2023-05-14T23:45:32.984Z,18.50
2023-05-14T23:48:05.719Z,18.48
2023-05-14T23:50:38.232Z,18.42
2023-05-14T23:53:10.288Z,18.45
2023-05-14T23:55:42.716Z,18.45
2023-05-14T23:58:15.027Z,18.45
